Terminal Aerodrome Forecast
Issued by NWS Louisville, KY

Home | Current Version | Previous Version | Text Only | Print | Product List | Glossary On
Versions: 1 2 3 4 5 6 7 8 9 10 11 12 13 14 15 16 17 18 19 20 21 22
600
FTUS43 KLMK 111120
TAFLEX
TAF
KLEX 111120Z 1112/1212 VRB03KT P6SM SCT030 OVC060
     FM111700 32004KT P6SM SCT060 BKN250
     FM120000 03003KT P6SM BKN100
     FM120900 07003KT P6SM BKN050=

USA.gov is the U.S. government's official web portal to all federal, state and local government web resources and services.